Time;durP1;ratioP1;P1;durP2;ratioP2;P2;SDS_P1;SDS_P2;PMS_P1;PMS_P2;Temp;Humidity;BMP_temperature;BMP_pressure;BME280_temperature;BME280_humidity;BME280_pressure;Samples;Min_cycle;Max_cycle;Signal;HPM_P1;HPM_P2
2024/01/26 00:00:11;;;;;;;2.20;2.00;;;;;;;10.39;56.04;100456.95;109227;1254;60123;-59
2024/01/26 00:02:39;;;;;;;2.30;2.10;;;;;;;10.34;56.08;100456.14;109343;1253;72629;-59
2024/01/26 00:05:09;;;;;;;2.30;1.90;;;;;;;10.28;56.12;100455.81;109347;1253;72855;-60
2024/01/26 00:07:37;;;;;;;3.20;2.30;;;;;;;10.27;56.09;100454.27;109358;1253;72757;-59
2024/01/26 00:10:06;;;;;;;3.50;2.20;;;;;;;10.26;56.10;100458.13;109326;1253;58867;-59
2024/01/26 00:12:35;;;;;;;2.20;1.90;;;;;;;10.25;56.01;100459.19;109340;1254;58761;-59
2024/01/26 00:15:04;;;;;;;2.20;1.90;;;;;;;10.25;55.92;100458.48;109372;1253;73113;-59
2024/01/26 00:17:32;;;;;;;2.50;2.10;;;;;;;10.23;55.85;100455.70;109314;1253;72854;-59
2024/01/26 00:19:59;;;;;;;2.50;2.30;;;;;;;10.18;55.92;100456.45;109320;1253;72724;-59
2024/01/26 00:22:27;;;;;;;2.50;2.10;;;;;;;10.18;55.92;100458.92;109376;1253;58823;-60
2024/01/26 00:24:54;;;;;;;2.30;1.90;;;;;;;10.17;55.88;100455.77;109323;1253;60089;-59
2024/01/26 00:27:22;;;;;;;2.40;1.90;;;;;;;10.17;56.46;100456.29;109062;1253;388163;-59
2024/01/26 00:29:50;;;;;;;2.00;1.80;;;;;;;10.18;57.41;100454.18;109312;1253;72696;-53
2024/01/26 00:32:17;;;;;;;2.00;1.60;;;;;;;10.14;56.99;100452.13;109118;1254;71350;-54
2024/01/26 00:34:45;;;;;;;2.00;1.80;;;;;;;10.11;56.35;100454.79;109401;1252;58824;-53
2024/01/26 00:37:12;;;;;;;1.80;1.70;;;;;;;10.03;56.21;100457.67;109376;1253;60115;-53
2024/01/26 00:39:40;;;;;;;3.40;2.10;;;;;;;9.97;56.08;100460.54;109223;1253;72666;-53
2024/01/26 00:42:08;;;;;;;2.00;1.70;;;;;;;9.91;56.08;100457.27;109406;1253;73002;-54
2024/01/26 00:44:37;;;;;;;2.10;1.90;;;;;;;9.83;56.15;100459.80;109409;1253;72759;-55
2024/01/26 00:47:04;;;;;;;1.90;1.70;;;;;;;9.76;56.13;100463.37;109227;1253;59012;-53
2024/01/26 00:49:32;;;;;;;2.50;1.90;;;;;;;9.69;56.28;100463.27;109399;1253;58813;-53
2024/01/26 00:52:15;;;;;;;2.70;2.00;;;;;;;9.66;56.41;100466.95;109415;1253;72619;-54
2024/01/26 00:54:43;;;;;;;1.80;1.60;;;;;;;9.60;56.51;100466.13;109081;1254;72879;-53
2024/01/26 00:57:10;;;;;;;2.20;1.90;;;;;;;9.54;56.67;100470.23;109429;1252;72686;-54
2024/01/26 00:59:38;;;;;;;2.60;1.80;;;;;;;9.51;56.77;100467.27;109379;1253;58864;-54
2024/01/26 01:02:05;;;;;;;1.90;1.80;;;;;;;9.50;56.89;100463.06;109237;1253;58201;-54
2024/01/26 01:04:35;;;;;;;1.90;1.80;;;;;;;9.48;56.87;100466.93;109475;1252;73984;-54
2024/01/26 01:07:03;;;;;;;2.10;1.90;;;;;;;9.45;56.81;100466.45;109467;1253;73101;-55
2024/01/26 01:09:31;;;;;;;1.70;1.60;;;;;;;9.38;56.93;100463.87;109333;1252;71256;-54
2024/01/26 01:11:59;;;;;;;2.70;2.40;;;;;;;9.32;57.04;100465.13;109443;1252;60655;-54
2024/01/26 01:14:28;;;;;;;2.50;2.10;;;;;;;9.24;57.21;100460.11;109103;1254;59098;-54
2024/01/26 01:16:57;;;;;;;3.00;1.90;;;;;;;9.20;57.29;100462.05;109444;1253;72507;-54
2024/01/26 01:19:24;;;;;;;2.50;1.90;;;;;;;9.16;57.42;100458.44;109489;1252;72834;-55
2024/01/26 01:21:52;;;;;;;2.80;2.00;;;;;;;9.13;57.50;100463.35;109379;1253;72688;-54
2024/01/26 01:24:19;;;;;;;3.00;2.20;;;;;;;9.09;57.48;100460.91;109367;1254;58146;-55
2024/01/26 01:26:47;;;;;;;2.60;1.80;;;;;;;9.05;57.57;100456.04;109363;1253;59107;-55
2024/01/26 01:29:18;;;;;;;2.30;1.80;;;;;;;9.01;57.57;100458.70;109338;1253;73989;-55
2024/01/26 01:31:45;;;;;;;2.10;1.70;;;;;;;8.97;57.74;100456.45;109327;1253;71621;-55
2024/01/26 01:34:13;;;;;;;2.10;1.90;;;;;;;8.92;57.65;100452.10;109129;1253;72749;-55
2024/01/26 01:36:41;;;;;;;2.30;2.10;;;;;;;8.87;57.76;100453.88;109354;1253;58864;-55
2024/01/26 01:39:08;;;;;;;2.40;2.10;;;;;;;8.82;57.92;100456.36;109183;1253;60096;-55
2024/01/26 01:41:36;;;;;;;2.20;1.90;;;;;;;8.78;57.99;100461.27;109348;1253;73994;-55
2024/01/26 01:44:04;;;;;;;1.90;1.60;;;;;;;8.74;57.94;100464.63;109352;1253;73346;-56
2024/01/26 01:46:31;;;;;;;2.30;2.10;;;;;;;8.71;57.94;100466.21;109105;1253;71693;-55
2024/01/26 01:48:59;;;;;;;3.30;1.90;;;;;;;8.66;57.95;100466.94;109396;1252;58304;-55
2024/01/26 01:51:27;;;;;;;2.10;1.90;;;;;;;8.59;57.98;100468.02;109077;1253;59019;-55
2024/01/26 01:53:55;;;;;;;2.50;2.10;;;;;;;8.54;58.07;100469.27;109319;1253;72613;-54
2024/01/26 01:56:23;;;;;;;1.70;1.60;;;;;;;8.50;58.23;100470.66;109366;1253;71658;-55
2024/01/26 01:58:51;;;;;;;2.40;2.00;;;;;;;8.49;58.20;100468.93;108948;1260;72728;-55
2024/01/26 02:01:19;;;;;;;2.10;1.90;;;;;;;8.47;58.22;100468.92;109127;1253;58495;-54
2024/01/26 02:03:46;;;;;;;2.00;1.80;;;;;;;8.45;58.23;100475.05;109368;1253;58787;-54
2024/01/26 02:06:15;;;;;;;3.20;2.40;;;;;;;8.42;58.24;100482.02;109370;1253;73948;-54
2024/01/26 02:08:43;;;;;;;2.30;2.00;;;;;;;8.41;58.26;100475.92;109333;1253;72839;-54
2024/01/26 02:11:11;;;;;;;2.60;2.20;;;;;;;8.39;58.28;100477.85;109310;1253;72763;-54
2024/01/26 02:13:39;;;;;;;2.90;2.60;;;;;;;8.37;58.22;100481.35;109285;1254;58163;-54
2024/01/26 02:16:06;;;;;;;2.90;2.70;;;;;;;8.37;58.11;100482.93;109318;1253;59998;-53
2024/01/26 02:18:35;;;;;;;2.90;2.30;;;;;;;8.34;57.95;100479.95;109423;1253;72990;-53
2024/01/26 02:21:03;;;;;;;3.00;2.30;;;;;;;8.31;57.88;100485.73;109389;1253;72848;-53
2024/01/26 02:23:31;;;;;;;3.00;2.50;;;;;;;8.28;57.88;100485.23;109105;1253;71850;-53
2024/01/26 02:25:59;;;;;;;3.00;2.30;;;;;;;8.25;57.79;100493.97;109300;1253;59436;-53
2024/01/26 02:28:26;;;;;;;3.20;2.70;;;;;;;8.22;57.80;100492.22;109141;1253;60247;-53
2024/01/26 02:30:54;;;;;;;2.70;2.40;;;;;;;8.17;57.98;100488.04;109336;1254;73016;-53
2024/01/26 02:33:21;;;;;;;5.00;2.80;;;;;;;8.14;58.04;100485.43;109312;1253;72721;-53
2024/01/26 02:35:49;;;;;;;2.40;2.20;;;;;;;8.11;58.00;100490.86;109445;1253;72829;-53
2024/01/26 02:38:17;;;;;;;3.60;2.40;;;;;;;8.08;57.93;100485.44;109452;1253;58206;-53
2024/01/26 02:40:44;;;;;;;2.90;2.50;;;;;;;8.09;57.88;100481.95;109421;1252;60224;-54
2024/01/26 02:43:13;;;;;;;3.90;2.50;;;;;;;8.11;57.81;100492.77;109455;1252;72907;-54
2024/01/26 02:45:46;;;;;;;3.00;2.20;;;;;;;8.14;57.74;100491.55;109473;1253;72677;-54
2024/01/26 02:48:14;;;;;;;3.20;2.60;;;;;;;8.12;57.71;100499.41;109233;1252;70300;-54
2024/01/26 02:50:41;;;;;;;4.70;2.40;;;;;;;8.06;57.60;100506.75;109189;1252;59241;-54
2024/01/26 02:53:09;;;;;;;4.20;2.80;;;;;;;8.01;57.61;100505.72;109503;1252;58773;-55
2024/01/26 02:55:37;;;;;;;3.40;3.10;;;;;;;7.97;57.53;100509.39;109388;1253;72540;-54
2024/01/26 02:58:04;;;;;;;2.50;2.20;;;;;;;7.94;57.37;100509.56;109136;1253;72847;-54
2024/01/26 03:00:32;;;;;;;2.40;2.20;;;;;;;7.92;57.36;100515.67;109462;1252;72716;-54
2024/01/26 03:03:00;;;;;;;3.60;2.30;;;;;;;7.88;57.26;100519.35;109422;1253;58157;-54
2024/01/26 03:05:27;;;;;;;3.00;2.60;;;;;;;7.80;57.34;100518.30;109201;1252;58280;-55
2024/01/26 03:07:56;;;;;;;3.00;2.60;;;;;;;7.70;57.45;100525.82;109448;1252;73939;-56
2024/01/26 03:10:24;;;;;;;3.50;2.30;;;;;;;7.61;57.64;100532.27;109089;1253;73300;-56
2024/01/26 03:12:51;;;;;;;2.60;2.20;;;;;;;7.54;57.80;100531.73;109317;1253;71421;-55
2024/01/26 03:15:19;;;;;;;3.00;2.60;;;;;;;7.47;57.91;100534.52;109436;1252;59355;-54
2024/01/26 03:17:46;;;;;;;3.60;2.70;;;;;;;7.43;58.05;100534.52;109364;1253;60139;-54
2024/01/26 03:20:14;;;;;;;3.70;2.50;;;;;;;7.40;58.15;100539.93;109364;1253;73997;-54
2024/01/26 03:22:43;;;;;;;2.90;2.30;;;;;;;7.39;58.17;100538.89;109350;1253;73154;-54
2024/01/26 03:25:10;;;;;;;2.90;2.10;;;;;;;7.35;58.07;100539.05;109347;1254;72664;-54
2024/01/26 03:27:38;;;;;;;3.00;2.60;;;;;;;7.30;58.20;100540.44;109290;1252;58262;-56
2024/01/26 03:30:06;;;;;;;2.60;2.10;;;;;;;7.27;58.31;100547.40;109243;1253;60095;-55
2024/01/26 03:32:34;;;;;;;2.30;2.10;;;;;;;7.25;58.35;100550.19;109147;1253;72372;-55
2024/01/26 03:35:02;;;;;;;2.10;1.90;;;;;;;7.25;58.27;100545.84;109437;1253;73286;-55
2024/01/26 03:37:30;;;;;;;2.60;2.40;;;;;;;7.26;58.17;100544.96;109412;1253;72721;-55
2024/01/26 03:39:57;;;;;;;2.90;2.00;;;;;;;7.27;57.98;100550.02;109464;1252;59372;-56
2024/01/26 03:42:25;;;;;;;2.70;1.90;;;;;;;7.27;57.92;100557.52;109448;1252;58822;-56
2024/01/26 03:44:53;;;;;;;2.60;2.10;;;;;;;7.28;57.86;100551.95;109475;1253;73918;-56
2024/01/26 03:47:20;;;;;;;2.20;1.90;;;;;;;7.28;57.72;100559.62;109457;1252;72744;-56
2024/01/26 03:49:48;;;;;;;2.70;1.80;;;;;;;7.27;57.62;100566.77;109433;1253;73192;-55
2024/01/26 03:52:16;;;;;;;2.20;1.70;;;;;;;7.28;57.60;100564.86;109448;1253;58250;-55
2024/01/26 03:54:43;;;;;;;2.50;1.80;;;;;;;7.27;57.54;100563.45;109395;1253;59110;-55
2024/01/26 03:57:13;;;;;;;2.60;1.70;;;;;;;7.26;57.42;100567.11;109360;1253;72661;-56
2024/01/26 03:59:41;;;;;;;3.20;1.80;;;;;;;7.22;57.44;100573.38;109376;1253;72897;-55
2024/01/26 04:02:08;;;;;;;4.10;2.20;;;;;;;7.20;57.36;100575.31;109182;1253;72406;-55
2024/01/26 04:04:36;;;;;;;2.10;1.60;;;;;;;7.20;57.33;100574.09;109424;1253;59317;-55
2024/01/26 04:07:03;;;;;;;3.30;1.60;;;;;;;7.20;57.24;100582.63;109400;1253;60049;-54
2024/01/26 04:09:32;;;;;;;2.00;1.60;;;;;;;7.20;57.12;100582.27;109415;1253;73959;-50
2024/01/26 04:12:00;;;;;;;1.50;1.40;;;;;;;7.18;57.10;100586.45;109400;1253;72501;-50
2024/01/26 04:14:27;;;;;;;2.10;1.60;;;;;;;7.19;56.93;100585.24;109397;1254;71694;-50
2024/01/26 04:16:55;;;;;;;2.50;1.60;;;;;;;7.18;56.92;100583.31;109357;1252;59296;-50
2024/01/26 04:19:22;;;;;;;1.40;1.30;;;;;;;7.15;56.88;100584.52;109435;1253;58712;-52
2024/01/26 04:21:52;;;;;;;3.80;1.70;;;;;;;7.10;56.89;100589.56;109122;1253;73927;-52
2024/01/26 04:24:19;;;;;;;2.40;1.40;;;;;;;7.07;56.95;100590.44;109460;1253;72151;-51
2024/01/26 04:26:47;;;;;;;2.60;1.50;;;;;;;7.06;56.85;100591.98;109436;1252;71462;-52
2024/01/26 04:29:14;;;;;;;1.80;1.50;;;;;;;7.02;56.84;100593.91;109402;1253;58160;-52
2024/01/26 04:31:42;;;;;;;2.00;1.20;;;;;;;7.00;56.91;100591.11;109431;1252;60530;-51
2024/01/26 04:34:10;;;;;;;1.90;1.30;;;;;;;6.99;56.83;100599.47;109060;1252;73923;-52
2024/01/26 04:36:38;;;;;;;2.00;1.10;;;;;;;6.99;56.76;100603.31;109454;1252;72967;-51
2024/01/26 04:39:05;;;;;;;2.40;1.30;;;;;;;6.98;56.75;100611.52;109374;1253;71434;-51
2024/01/26 04:41:33;;;;;;;1.20;1.00;;;;;;;6.97;56.68;100608.53;109453;1252;59303;-51
2024/01/26 04:44:00;;;;;;;1.30;1.20;;;;;;;6.96;56.55;100619.86;109288;1254;58345;-51
2024/01/26 04:46:29;;;;;;;2.20;1.40;;;;;;;6.93;56.57;100621.06;109490;1252;72741;-51
2024/01/26 04:48:59;;;;;;;1.60;1.30;;;;;;;6.91;56.56;100623.48;109384;1253;72864;-51
2024/01/26 04:51:26;;;;;;;3.50;1.30;;;;;;;6.89;56.57;100629.40;109401;1253;71447;-51
2024/01/26 04:53:54;;;;;;;1.70;1.20;;;;;;;6.86;56.68;100626.09;109403;1253;58217;-51
2024/01/26 04:56:21;;;;;;;2.60;1.10;;;;;;;6.84;56.73;100625.90;109391;1253;58832;-51
2024/01/26 04:58:50;;;;;;;3.50;1.30;;;;;;;6.81;56.72;100636.88;109459;1253;73815;-51
2024/01/26 05:01:17;;;;;;;2.80;1.50;;;;;;;6.78;56.75;100632.14;109422;1253;72839;-51
2024/01/26 05:03:45;;;;;;;1.20;1.10;;;;;;;6.74;56.77;100634.91;109185;1252;72722;-53
2024/01/26 05:06:13;;;;;;;1.90;1.30;;;;;;;6.72;56.86;100642.22;109446;1252;58192;-52
2024/01/26 05:08:41;;;;;;;5.30;1.30;;;;;;;6.68;56.94;100642.38;109402;1253;60099;-50
2024/01/26 05:11:09;;;;;;;1.20;0.80;;;;;;;6.71;59.91;100642.91;109385;1253;76112;-51
2024/01/26 05:13:37;;;;;;;1.30;1.20;;;;;;;6.76;60.20;100649.39;109449;1253;72958;-50
2024/01/26 05:16:05;;;;;;;1.00;0.80;;;;;;;6.72;59.69;100650.07;109127;1254;71439;-50
2024/01/26 05:18:33;;;;;;;1.10;0.90;;;;;;;6.66;59.29;100651.08;109413;1254;60163;-50
2024/01/26 05:21:00;;;;;;;1.20;0.90;;;;;;;6.61;59.03;100654.53;109436;1252;60099;-50
2024/01/26 05:23:28;;;;;;;0.90;0.80;;;;;;;6.58;58.68;100659.56;109471;1252;73461;-50
2024/01/26 05:25:59;;;;;;;1.30;0.90;;;;;;;6.54;58.59;100663.35;109428;1253;73663;-50
2024/01/26 05:28:26;;;;;;;1.60;0.90;;;;;;;6.49;58.37;100667.16;109417;1253;71432;-50
2024/01/26 05:30:54;;;;;;;1.60;1.00;;;;;;;6.44;58.33;100668.02;109404;1253;59338;-50
2024/01/26 05:33:21;;;;;;;1.50;0.80;;;;;;;6.42;58.25;100665.37;109099;1253;58986;-51
2024/01/26 05:35:49;;;;;;;1.50;0.90;;;;;;;6.40;58.19;100671.45;109481;1252;73524;-51
2024/01/26 05:38:17;;;;;;;2.00;1.10;;;;;;;6.38;58.13;100678.06;109452;1252;73819;-51
2024/01/26 05:40:45;;;;;;;1.70;0.90;;;;;;;6.36;58.19;100680.31;109426;1253;72738;-50
2024/01/26 05:43:13;;;;;;;1.80;0.80;;;;;;;6.31;58.16;100682.88;109426;1253;58937;-50
2024/01/26 05:45:40;;;;;;;1.00;0.80;;;;;;;6.28;58.22;100683.72;109446;1252;60108;-50
2024/01/26 05:48:09;;;;;;;1.50;1.10;;;;;;;6.24;58.30;100691.70;109441;1253;73424;-50
2024/01/26 05:50:38;;;;;;;1.40;1.10;;;;;;;6.21;58.37;100688.73;109495;1253;72491;-50
2024/01/26 05:53:07;;;;;;;1.80;1.10;;;;;;;6.19;58.38;100694.45;109111;1258;72719;-51
2024/01/26 05:55:36;;;;;;;0.90;0.80;;;;;;;6.17;58.41;100698.27;109374;1253;59347;-52
2024/01/26 05:58:03;;;;;;;3.00;1.20;;;;;;;6.16;58.45;100698.60;109465;1253;60255;-52
2024/01/26 06:00:56;;;;;;;2.90;1.00;;;;;;;6.15;58.95;100696.67;109308;1253;74369;-54
2024/01/26 06:03:23;;;;;;;1.00;0.90;;;;;;;6.23;60.72;100704.23;109407;1252;71748;-54
2024/01/26 06:05:51;;;;;;;2.10;1.20;;;;;;;6.34;60.90;100709.38;109397;1253;73080;-55
2024/01/26 06:08:18;;;;;;;2.10;1.20;;;;;;;6.45;60.44;100703.55;109394;1252;59313;-55
2024/01/26 06:10:46;;;;;;;1.90;1.10;;;;;;;6.54;59.85;100700.14;109507;1252;59795;-55
2024/01/26 06:13:14;;;;;;;1.20;1.10;;;;;;;6.60;59.26;100697.57;109392;1252;74698;-54
2024/01/26 06:15:42;;;;;;;1.20;0.80;;;;;;;6.64;58.76;100701.60;109249;1252;71691;-55
2024/01/26 06:18:10;;;;;;;1.90;0.90;;;;;;;6.67;58.50;100702.52;109436;1252;72678;-55
2024/01/26 06:20:39;;;;;;;1.00;0.90;;;;;;;6.72;58.17;100707.77;109144;1253;59025;-55
2024/01/26 06:23:07;;;;;;;1.90;1.00;;;;;;;6.74;57.88;100706.73;109163;1253;59090;-54
2024/01/26 06:25:34;;;;;;;1.60;0.90;;;;;;;6.76;57.61;100706.05;109454;1253;74799;-54
2024/01/26 06:28:03;;;;;;;1.70;1.00;;;;;;;6.77;57.41;100710.59;109495;1253;71636;-57
2024/01/26 06:30:30;;;;;;;1.80;1.30;;;;;;;6.78;57.32;100720.52;109479;1253;72736;-58
2024/01/26 06:32:58;;;;;;;1.50;0.90;;;;;;;6.79;57.20;100723.85;109346;1254;58968;-56
2024/01/26 06:35:25;;;;;;;1.70;1.10;;;;;;;6.80;57.05;100726.48;109410;1252;60079;-56
2024/01/26 06:37:53;;;;;;;2.30;1.20;;;;;;;6.80;57.00;100727.17;109488;1253;74625;-57
2024/01/26 06:40:21;;;;;;;1.70;1.20;;;;;;;6.79;56.92;100722.80;109485;1253;72748;-56
2024/01/26 06:42:48;;;;;;;1.60;1.40;;;;;;;6.78;56.90;100721.91;109429;1254;71457;-56
2024/01/26 06:45:16;;;;;;;1.80;1.30;;;;;;;6.78;56.87;100727.15;109480;1254;59281;-57
2024/01/26 06:47:44;;;;;;;2.70;1.20;;;;;;;6.79;56.85;100727.86;109521;1253;59487;-56
2024/01/26 06:50:14;;;;;;;3.00;1.00;;;;;;;6.78;56.87;100728.02;109204;1252;73422;-56
2024/01/26 06:52:42;;;;;;;1.60;1.10;;;;;;;6.77;56.86;100724.36;109456;1253;72860;-56
2024/01/26 06:55:10;;;;;;;1.80;1.00;;;;;;;6.77;56.94;100730.99;109241;1254;72800;-56
2024/01/26 06:57:37;;;;;;;2.50;1.30;;;;;;;6.77;57.03;100732.91;109479;1253;59295;-56
2024/01/26 07:00:07;;;;;;;1.70;1.10;;;;;;;6.76;57.11;100736.55;109189;1253;60124;-56
2024/01/26 07:02:36;;;;;;;4.70;1.40;;;;;;;6.75;57.21;100735.33;109303;1254;74789;-56
2024/01/26 07:05:05;;;;;;;4.00;1.40;;;;;;;6.75;57.38;100742.66;109479;1252;72940;-56
2024/01/26 07:07:33;;;;;;;4.20;1.40;;;;;;;6.78;57.42;100741.09;109422;1254;71433;-57
2024/01/26 07:10:00;;;;;;;1.50;1.10;;;;;;;6.79;57.54;100742.33;109185;1252;59450;-56
2024/01/26 07:12:28;;;;;;;1.50;0.90;;;;;;;6.76;57.57;100733.95;109281;1253;60135;-56
2024/01/26 07:14:55;;;;;;;1.60;1.20;;;;;;;6.77;57.64;100734.30;109394;1253;74802;-55
2024/01/26 07:17:23;;;;;;;2.70;1.00;;;;;;;6.80;57.63;100738.33;109450;1253;72877;-56
2024/01/26 07:19:50;;;;;;;2.30;1.10;;;;;;;6.82;57.68;100733.12;109159;1252;72772;-56
2024/01/26 07:22:18;;;;;;;1.90;1.10;;;;;;;6.84;57.68;100740.27;109414;1252;60031;-55
2024/01/26 07:24:46;;;;;;;1.80;1.40;;;;;;;6.86;57.66;100738.73;109198;1253;60136;-57
2024/01/26 07:27:13;;;;;;;1.40;1.10;;;;;;;6.88;57.65;100742.92;109472;1252;74704;-56
2024/01/26 07:29:41;;;;;;;8.70;1.20;;;;;;;6.88;57.67;100738.38;109449;1253;72007;-56
2024/01/26 07:32:09;;;;;;;5.00;1.20;;;;;;;6.89;57.70;100736.30;109467;1253;72799;-55
2024/01/26 07:34:37;;;;;;;1.10;1.00;;;;;;;6.91;57.71;100740.48;109459;1253;60136;-57
2024/01/26 07:37:04;;;;;;;5.20;1.40;;;;;;;6.93;57.73;100746.08;109220;1252;59059;-56
2024/01/26 07:39:32;;;;;;;1.30;1.20;;;;;;;6.94;57.75;100744.71;109417;1257;74648;-56
2024/01/26 07:42:00;;;;;;;1.90;1.30;;;;;;;6.97;57.77;100747.17;109384;1254;72868;-54
2024/01/26 07:44:27;;;;;;;1.20;1.10;;;;;;;6.99;57.74;100751.20;109352;1253;72717;-56
2024/01/26 07:46:55;;;;;;;1.80;1.10;;;;;;;7.01;57.68;100752.09;109335;1254;59122;-55
2024/01/26 07:49:22;;;;;;;1.30;1.20;;;;;;;7.02;57.62;100752.44;109374;1252;60077;-55
2024/01/26 07:51:50;;;;;;;1.10;1.00;;;;;;;7.05;57.60;100750.54;109367;1253;74849;-55
2024/01/26 07:54:20;;;;;;;1.80;1.10;;;;;;;7.06;57.50;100749.48;109388;1252;72492;-54
2024/01/26 07:56:48;;;;;;;1.80;1.10;;;;;;;7.07;57.35;100751.08;109369;1253;73051;-55
2024/01/26 07:59:16;;;;;;;2.80;1.60;;;;;;;7.08;57.33;100746.89;109400;1253;60107;-57
2024/01/26 08:01:43;;;;;;;1.70;1.10;;;;;;;7.10;57.33;100751.42;109323;1253;60075;-56
2024/01/26 08:04:11;;;;;;;1.60;1.30;;;;;;;7.14;57.38;100758.09;109397;1252;73442;-56
2024/01/26 08:06:40;;;;;;;2.70;1.50;;;;;;;7.17;57.31;100753.73;109372;1252;72881;-56
2024/01/26 08:09:10;;;;;;;1.80;1.30;;;;;;;7.20;57.29;100764.24;109347;1254;72021;-56
2024/01/26 08:11:38;;;;;;;2.30;1.40;;;;;;;7.24;57.14;100766.00;109152;1254;59064;-57
2024/01/26 08:14:06;;;;;;;1.50;1.20;;;;;;;7.28;57.22;100769.16;109408;1252;60082;-55
2024/01/26 08:16:35;;;;;;;6.60;1.40;;;;;;;7.32;57.06;100770.58;109345;1253;74751;-55
2024/01/26 08:19:04;;;;;;;2.00;1.30;;;;;;;7.35;57.04;100764.67;109376;1253;73288;-54
2024/01/26 08:21:32;;;;;;;5.30;1.40;;;;;;;7.35;56.93;100765.38;108945;1254;71455;-56
2024/01/26 08:24:01;;;;;;;2.40;1.30;;;;;;;7.36;56.98;100765.20;109114;1253;59022;-56
2024/01/26 08:26:30;;;;;;;2.30;1.30;;;;;;;7.38;56.95;100767.30;109352;1253;59993;-56
2024/01/26 08:28:58;;;;;;;1.20;1.10;;;;;;;7.40;57.03;100768.53;109391;1254;74712;-56
2024/01/26 08:31:26;;;;;;;5.10;1.30;;;;;;;7.41;56.83;100778.67;109135;1254;71603;-57
2024/01/26 08:33:53;;;;;;;1.40;1.10;;;;;;;7.41;56.63;100775.16;109309;1254;71358;-55
2024/01/26 08:36:21;;;;;;;2.80;1.50;;;;;;;7.40;56.50;100774.81;109297;1253;60412;-56
2024/01/26 08:38:52;;;;;;;2.70;1.30;;;;;;;7.41;56.46;100784.25;109393;1252;59027;-55
2024/01/26 08:41:19;;;;;;;4.00;1.10;;;;;;;7.42;56.39;100785.48;109364;1253;74386;-54
2024/01/26 08:43:47;;;;;;;4.20;1.30;;;;;;;7.45;59.73;100777.30;109404;1252;72870;-57
2024/01/26 08:46:15;;;;;;;2.40;1.40;;;;;;;7.55;61.20;100784.16;108953;1254;73456;-56
2024/01/26 08:48:43;;;;;;;1.70;1.00;;;;;;;7.58;60.34;100787.30;109040;1254;60161;-56
2024/01/26 08:51:10;;;;;;;1.90;1.30;;;;;;;7.55;59.29;100783.80;109100;1253;59550;-55
2024/01/26 08:53:39;;;;;;;2.00;1.40;;;;;;;7.51;58.56;100791.80;109392;1252;73826;-56
2024/01/26 08:56:08;;;;;;;2.40;1.20;;;;;;;7.49;57.97;100792.15;109393;1254;72887;-56
2024/01/26 08:58:36;;;;;;;1.00;0.90;;;;;;;7.47;57.67;100783.93;109265;1252;73104;-57
2024/01/26 09:01:04;;;;;;;1.60;1.20;;;;;;;7.44;57.42;100786.88;109373;1253;59044;-56
2024/01/26 09:03:32;;;;;;;2.40;1.00;;;;;;;7.42;57.27;100790.53;109361;1253;58943;-57
2024/01/26 09:06:00;;;;;;;1.40;1.00;;;;;;;7.41;57.32;100786.16;109377;1253;73473;-57
2024/01/26 09:08:29;;;;;;;1.70;1.20;;;;;;;7.39;57.22;100792.96;109386;1253;72876;-56
2024/01/26 09:10:56;;;;;;;1.40;1.20;;;;;;;7.38;57.08;100788.08;109055;1252;71454;-57
2024/01/26 09:13:24;;;;;;;1.70;1.30;;;;;;;7.36;56.95;100785.09;109367;1254;59123;-56
2024/01/26 09:15:52;;;;;;;2.30;1.00;;;;;;;7.33;57.00;100784.73;109348;1252;59048;-56
2024/01/26 09:18:20;;;;;;;1.90;1.10;;;;;;;7.31;57.17;100786.29;109365;1253;74189;-57
2024/01/26 09:20:50;;;;;;;1.00;0.90;;;;;;;7.31;57.16;100786.98;109394;1253;72944;-56
2024/01/26 09:23:18;;;;;;;1.40;1.10;;;;;;;7.31;57.17;100784.20;109404;1252;72696;-57
2024/01/26 09:25:46;;;;;;;1.50;1.40;;;;;;;7.32;57.29;100784.89;109382;1254;59765;-57
2024/01/26 09:28:13;;;;;;;1.70;1.30;;;;;;;7.32;57.33;100783.15;109394;1254;58973;-56
2024/01/26 09:30:42;;;;;;;0.90;0.80;;;;;;;7.33;57.45;100784.73;109389;1253;73413;-56
2024/01/26 09:33:11;;;;;;;1.60;0.90;;;;;;;7.31;57.37;100780.16;109385;1253;71599;-57
2024/01/26 09:35:38;;;;;;;1.20;1.00;;;;;;;7.29;57.37;100791.15;109191;1253;73081;-57
2024/01/26 09:38:06;;;;;;;2.00;0.90;;;;;;;7.29;57.33;100783.83;109335;1254;59753;-56
2024/01/26 09:40:34;;;;;;;1.40;0.90;;;;;;;7.29;57.27;100785.73;109411;1254;59425;-55
2024/01/26 09:43:01;;;;;;;1.10;1.00;;;;;;;7.27;57.28;100783.48;109210;1254;73807;-57
2024/01/26 09:45:30;;;;;;;1.10;1.00;;;;;;;7.25;57.27;100785.38;109385;1253;70928;-57
2024/01/26 09:47:58;;;;;;;4.60;1.20;;;;;;;7.24;57.29;100784.84;109171;1254;73015;-57
2024/01/26 09:50:26;;;;;;;1.40;0.80;;;;;;;7.21;57.35;100781.16;109369;1252;59170;-55
2024/01/26 09:52:53;;;;;;;1.30;0.70;;;;;;;7.19;57.45;100783.95;109104;1253;60524;-55
2024/01/26 09:55:21;;;;;;;1.30;0.90;;;;;;;7.20;57.54;100780.28;109090;1260;74048;-55
2024/01/26 09:57:49;;;;;;;1.00;0.90;;;;;;;7.22;57.57;100776.11;109355;1253;72046;-54
2024/01/26 10:00:16;;;;;;;1.00;0.90;;;;;;;7.25;57.58;100781.36;109332;1254;72564;-56
2024/01/26 10:02:44;;;;;;;2.30;1.20;;;;;;;7.25;57.46;100780.84;109317;1254;59591;-57
2024/01/26 10:05:16;;;;;;;2.50;1.00;;;;;;;7.25;57.38;100776.13;109408;1252;59266;-57
2024/01/26 10:07:46;;;;;;;1.60;1.00;;;;;;;7.25;57.52;100774.20;109379;1253;74495;-56
2024/01/26 10:10:16;;;;;;;2.00;0.90;;;;;;;7.27;57.64;100774.39;109383;1254;72885;-56
2024/01/26 10:12:44;;;;;;;1.20;0.80;;;;;;;7.28;57.60;100774.75;109360;1254;73020;-56
2024/01/26 10:15:13;;;;;;;3.20;1.10;;;;;;;7.30;57.50;100777.20;109373;1253;59040;-57
2024/01/26 10:17:43;;;;;;;0.80;0.80;;;;;;;7.32;57.43;100772.67;109256;1253;60234;-56
2024/01/26 10:20:15;;;;;;;1.10;0.90;;;;;;;7.31;57.40;100768.83;109388;1253;74720;-57
2024/01/26 10:22:44;;;;;;;0.80;0.80;;;;;;;7.34;57.42;100768.85;109368;1253;74758;-56
2024/01/26 10:25:13;;;;;;;1.40;1.00;;;;;;;7.36;57.32;100768.34;109362;1253;71317;-56
2024/01/26 10:27:41;;;;;;;0.90;0.80;;;;;;;7.38;57.26;100763.82;109366;1254;60105;-56
2024/01/26 10:30:11;;;;;;;1.00;0.80;;;;;;;7.39;57.37;100760.68;108945;1253;60406;-57
2024/01/26 10:32:39;;;;;;;1.10;0.90;;;;;;;7.44;57.29;100761.74;108996;1253;74005;-57
2024/01/26 10:35:08;;;;;;;3.60;1.10;;;;;;;7.45;57.30;100756.86;109460;1253;71575;-55
2024/01/26 10:37:38;;;;;;;1.00;0.80;;;;;;;7.46;57.12;100756.52;109364;1253;72817;-57
2024/01/26 10:40:09;;;;;;;1.60;1.10;;;;;;;7.47;56.88;100754.79;109377;1253;60361;-57
2024/01/26 10:42:36;;;;;;;1.20;1.00;;;;;;;7.47;56.83;100756.19;109163;1253;58973;-56
2024/01/26 10:45:06;;;;;;;0.90;0.90;;;;;;;7.48;56.84;100758.45;108980;1257;74580;-55
2024/01/26 10:47:39;;;;;;;1.00;0.90;;;;;;;7.50;56.83;100756.38;109000;1254;72291;-57
2024/01/26 10:50:08;;;;;;;1.20;0.90;;;;;;;7.49;56.64;100756.36;109384;1253;75009;-55
2024/01/26 10:52:37;;;;;;;1.00;0.90;;;;;;;7.47;56.78;100755.48;109332;1253;59019;-55
2024/01/26 10:55:06;;;;;;;1.20;0.90;;;;;;;7.48;56.90;100757.77;109173;1258;59882;-56
2024/01/26 10:57:34;;;;;;;0.70;0.60;;;;;;;7.48;56.84;100756.54;109120;1254;75198;-56
2024/01/26 11:00:04;;;;;;;1.00;0.90;;;;;;;7.48;56.89;100753.58;109399;1253;73148;-58
2024/01/26 11:02:33;;;;;;;3.10;0.90;;;;;;;7.47;57.04;100758.98;109411;1253;71741;-56
2024/01/26 11:05:07;;;;;;;2.10;0.90;;;;;;;7.48;56.99;100754.63;109409;1254;59409;-57
2024/01/26 11:07:36;;;;;;;0.90;0.80;;;;;;;7.49;57.11;100748.69;109167;1252;60111;-54
2024/01/26 11:10:06;;;;;;;1.40;0.80;;;;;;;7.49;57.07;100743.63;109118;1254;74083;-56
2024/01/26 11:12:34;;;;;;;0.80;0.70;;;;;;;7.49;57.23;100746.23;109061;1253;71218;-56
2024/01/26 11:15:05;;;;;;;0.90;0.90;;;;;;;7.51;57.23;100753.77;109035;1256;73014;-56
2024/01/26 11:17:50;;;;;;;4.70;0.90;;;;;;;7.50;57.23;100746.08;109400;1254;59231;-55
2024/01/26 11:20:22;;;;;;;2.20;0.80;;;;;;;7.48;57.30;100752.17;109096;1253;59288;-56
2024/01/26 11:23:11;;;;;;;1.30;0.80;;;;;;;7.46;57.42;100750.77;109300;1257;73520;-56
2024/01/26 11:25:40;;;;;;;2.00;0.90;;;;;;;7.47;57.51;100747.98;109360;1254;72363;-58
2024/01/26 11:28:08;;;;;;;1.20;0.80;;;;;;;7.51;57.42;100750.09;109302;1254;71451;-55